Map

Track Data

SID SEASON NUMBER BASIN SUBBASIN NAME ISO_TIME NATURE LAT LON WMO_WIND WMO_PRES WMO_AGENCY TRACK_TYPE DIST2LAND LANDFALL IFLAG USA_AGENCY USA_ATCF_ID USA_LAT USA_LON USA_RECORD USA_STATUS USA_WIND USA_PRES USA_SSHS USA_R34_NE USA_R34_SE USA_R34_SW USA_R34_NW USA_R50_NE USA_R50_SE USA_R50_SW USA_R50_NW USA_R64_NE USA_R64_SE USA_R64_SW USA_R64_NW USA_POCI USA_ROCI USA_RMW USA_EYE TOKYO_LAT TOKYO_LON TOKYO_GRADE TOKYO_WIND TOKYO_PRES TOKYO_R50_DIR TOKYO_R50_LONG TOKYO_R50_SHORT TOKYO_R30_DIR TOKYO_R30_LONG TOKYO_R30_SHORT TOKYO_LAND CMA_LAT CMA_LON CMA_CAT CMA_WIND CMA_PRES HKO_LAT HKO_LON HKO_CAT HKO_WIND HKO_PRES NEWDELHI_LAT NEWDELHI_LON NEWDELHI_GRADE NEWDELHI_WIND NEWDELHI_PRES NEWDELHI_CI NEWDELHI_DP NEWDELHI_POCI REUNION_LAT REUNION_LON REUNION_TYPE REUNION_WIND REUNION_PRES REUNION_TNUM REUNION_CI REUNION_RMW REUNION_R34_NE REUNION_R34_SE REUNION_R34_SW REUNION_R34_NW REUNION_R50_NE REUNION_R50_SE REUNION_R50_SW REUNION_R50_NW REUNION_R64_NE REUNION_R64_SE REUNION_R64_SW REUNION_R64_NW BOM_LAT BOM_LON BOM_TYPE BOM_WIND BOM_PRES BOM_TNUM BOM_CI BOM_RMW BOM_R34_NE BOM_R34_SE BOM_R34_SW BOM_R34_NW BOM_R50_NE BOM_R50_SE BOM_R50_SW BOM_R50_NW BOM_R64_NE BOM_R64_SE BOM_R64_SW BOM_R64_NW BOM_ROCI BOM_POCI BOM_EYE BOM_POS_METHOD BOM_PRES_METHOD NADI_LAT NADI_LON NADI_CAT NADI_WIND NADI_PRES WELLINGTON_LAT WELLINGTON_LON WELLINGTON_WIND WELLINGTON_PRES DS824_LAT DS824_LON DS824_STAGE DS824_WIND DS824_PRES TD9636_LAT TD9636_LON TD9636_STAGE TD9636_WIND TD9636_PRES TD9635_LAT TD9635_LON TD9635_WIND TD9635_PRES TD9635_ROCI NEUMANN_LAT NEUMANN_LON NEUMANN_CLASS NEUMANN_WIND NEUMANN_PRES MLC_LAT MLC_LON MLC_CLASS MLC_WIND MLC_PRES USA_GUST BOM_GUST BOM_GUST_PER REUNION_GUST REUNION_GUST_PER USA_SEAHGT USA_SEARAD_NE USA_SEARAD_SE USA_SEARAD_SW USA_SEARAD_NW STORM_SPEED STORM_DIR
1984204N21162 1984 48 WP MM DINAH 1984-07-21 18:00:00 NR 21.0000 162.200 main 2640 2602 O_________O___ jtwc_wp WP061984 21.0000 162.200 20 -1 21.0000 162.200 1 20 9 270
1984204N21162 1984 48 WP MM DINAH 1984-07-21 21:00:00 NR 20.9992 161.707 main 2602 2572 P_________P___ WP061984 20.9980 161.697 20 -1 21.0005 161.716 1 20 8 270
1984204N21162 1984 48 WP MM DINAH 1984-07-22 00:00:00 NR 21.0000 161.300 main 2572 2550 O_________O___ jtwc_wp WP061984 21.0000 161.300 20 -1 21.0000 161.300 1 20 6 270
1984204N21162 1984 48 WP MM DINAH 1984-07-22 03:00:00 NR 21.0025 161.035 main 2550 2542 P_________P___ WP061984 21.0073 161.070 20 -1 20.9977 161.001 1 21 4 269
1984204N21162 1984 48 WP MM DINAH 1984-07-22 06:00:00 NR 20.9933 160.843 main 2535 2520 O_________P___ jtwc_wp WP061984 21.0000 160.900 20 -1 20.9865 160.786 1 22 4 264
1984204N21162 1984 48 WP MM DINAH 1984-07-22 09:00:00 NR 20.9610 160.634 main 2520 2513 P_________P___ WP061984 20.9650 160.665 22 -1 20.9571 160.603 1 23 4 257
1984204N21162 1984 48 WP MM DINAH 1984-07-22 12:00:00 NR 20.9000 160.400 main 2513 2500 O_________O___ jtwc_wp WP061984 20.9000 160.400 25 -1 20.9000 160.400 1 25 5 251
1984204N21162 1984 48 WP MM DINAH 1984-07-22 15:00:00 NR 20.7871 160.101 main 2500 2486 P_________P___ WP061984 20.8149 160.115 25 -1 20.7593 160.087 1 25 6 247
1984204N21162 1984 48 WP MM DINAH 1984-07-22 18:00:00 NR 20.6489 159.774 main 2494 2474 O_________P___ jtwc_wp WP061984 20.7000 159.800 25 -1 20.5979 159.749 1 25 7 245
1984204N21162 1984 48 WP MM DINAH 1984-07-22 21:00:00 NR 20.4950 159.427 main 2474 2461 P_________P___ WP061984 20.5276 159.442 25 -1 20.4624 159.412 1 25 7 249
1984204N21162 1984 48 WP MM DINAH 1984-07-23 00:00:00 NR 20.4000 159.100 main 2461 2447 O_________O___ jtwc_wp WP061984 20.4000 159.100 25 -1 20.4000 159.100 1 25 6 263
1984204N21162 1984 48 WP MM DINAH 1984-07-23 03:00:00 NR 20.4303 158.837 main 2440 2418 P_________P___ WP061984 20.3899 158.828 25 -1 20.4706 158.847 1 25 5 289
1984204N21162 1984 48 WP MM DINAH 1984-07-23 06:00:00 NR 20.5586 158.610 main 2410 2379 O_________P___ jtwc_wp WP061984 20.5000 158.600 25 -1 20.6171 158.621 1 25 5 310
1984204N21162 1984 48 WP MM DINAH 1984-07-23 09:00:00 NR 20.7700 158.401 main 2379 2348 P_________P___ WP061984 20.7350 158.393 25 -1 20.8051 158.409 1 25 6 319
1984204N21162 1984 48 WP MM DINAH 1984-07-23 12:00:00 NR 21.0000 158.200 main 2348 2318 O_________O___ jtwc_wp WP061984 21.0000 158.200 25 -1 21.0000 158.200 1 25 5 318
1984204N21162 1984 48 WP MM DINAH 1984-07-23 15:00:00 NR 21.1755 158.012 main 2318 2296 P_________P___ WP061984 21.1649 158.007 27 -1 21.1860 158.016 1 26 5 313
1984204N21162 1984 48 WP MM DINAH 1984-07-23 18:00:00 NR 21.3333 157.813 main 2296 2265 O_________P___ jtwc_wp WP061984 21.3000 157.800 30 -1 21.3665 157.825 1 27 5 309
1984204N21162 1984 48 WP MM DINAH 1984-07-23 21:00:00 NR 21.4894 157.592 main 2265 2236 P_________P___ WP061984 21.4648 157.588 30 -1 21.5139 157.597 1 28 5 296
1984204N21162 1984 48 WP MM DINAH 1984-07-24 00:00:00 TS 21.5545 157.327 1004 tokyo main 2236 2207 OOOO______O___ jtwc_wp WP061984 21.6000 157.300 30 -1 21.5000 157.500 2 1004 0 0 0 21.3000 157.500 1 29 1002 21.5000 157.200 TD 25 1000 21.6000 157.300 1 30 6 286
1984204N21162 1984 48 WP MM DINAH 1984-07-24 03:00:00 TS 21.6659 156.930 main 2200 2171 PPPP______P___ WP061984 21.7025 156.888 30 -1 21.6627 157.051 2 1002 0 0 21.6403 157.038 1 29 1000 21.7399 156.885 TD 27 999 21.6066 156.880 1 31 8 282
1984204N21162 1984 48 WP MM DINAH 1984-07-24 06:00:00 TS 21.7173 156.487 1000 tokyo main 2171 2144 OOOO______P___ jtwc_wp WP061984 21.7000 156.400 30 -1 21.7000 156.600 2 1000 0 0 0 21.8000 156.600 1 29 999 21.9000 156.500 TD 30 999 21.5485 156.395 1 32 8 267
1984204N21162 1984 48 WP MM DINAH 1984-07-24 09:00:00 TS 21.6187 156.026 main 2145 2126 PPPP______P___ WP061984 21.5301 155.885 32 -1 21.5374 156.150 2 998 0 0 21.6673 156.200 1 33 997 21.9177 156.007 TD 32 997 21.4410 155.887 1 33 9 251
1984204N21162 1984 48 WP MM DINAH 1984-07-24 12:00:00 TS 21.4200 155.560 996 tokyo main 2135 2117 OOOO______O___ jtwc_wp WP061984 21.3000 155.400 35 0 21.3000 155.700 2 996 0 0 0 21.4000 155.800 2 38 995 21.8000 155.500 TS 35 995 21.3000 155.400 2 35 9 245
1984204N21162 1984 48 WP MM DINAH 1984-07-24 15:00:00 TS 21.2437 155.148 main 2119 2106 PPPP______P___ WP061984 21.1497 155.035 37 0 21.1349 155.250 2 994 0 0 21.1849 155.365 2 38 993 21.5798 155.085 TS 37 993 21.1693 155.005 2 37 8 245
1984204N21162 1984 48 WP MM DINAH 1984-07-24 18:00:00 TS 21.0618 154.747 35 992 tokyo main 2101 2097 OOOO______P___ jtwc_wp WP061984 21.0000 154.700 40 0 21.0000 154.800 3 35 992 0 9 50 50 0 21.0000 154.900 2 38 992 21.3000 154.700 TS 40 992 21.0090 154.636 2 40 8 246
1984204N21162 1984 48 WP MM DINAH 1984-07-24 21:00:00 TS 20.9087 154.334 main 2094 2084 PPPP______P___ WP061984 20.8223 154.323 42 0 20.9298 154.358 3 40 991 0 9 75 75 20.9223 154.416 2 43 992 21.0499 154.300 TS 42 992 20.8193 154.274 2 42 9 247
1984204N21162 1984 48 WP MM DINAH 1984-07-25 00:00:00 TS 20.7200 153.900 45 990 tokyo main 2087 2077 OOOO______O___ jtwc_wp WP061984 20.6000 153.900 45 0 20.8000 153.900 3 45 990 0 9 100 100 0 20.8000 153.900 3 48 992 20.8000 153.900 TS 45 992 20.6000 153.900 2 45 10 241
1984204N21162 1984 48 WP MM DINAH 1984-07-25 03:00:00 TS 20.4226 153.404 main 2084 2078 PPPP______P___ WP061984 20.3076 153.392 47 0 20.4651 153.377 3 47 987 0 9 125 125 20.4728 153.304 3 48 989 20.5500 153.493 TS 47 989 20.3176 153.452 2 47 11 236
1984204N21162 1984 48 WP MM DINAH 1984-07-25 06:00:00 TS 20.1026 152.939 50 985 tokyo main 2082 2080 OOOO______P___ jtwc_wp WP061984 20.0000 152.900 50 0 20.1000 152.900 4 50 985 0 9 150 150 0 20.1000 152.800 3 48 987 20.3000 153.100 STS 50 987 20.0131 152.996 2 50 10 233
1984204N21162 1984 48 WP MM DINAH 1984-07-25 09:00:00 TS 19.8343 152.584 main 2093 2086 PPPP______P___ WP061984 19.7199 152.505 52 0 19.8623 152.563 4 52 985 0 9 175 175 19.8272 152.555 3 53 985 20.0350 152.728 STS 50 986 19.7270 152.567 2 52 8 231
1984204N21162 1984 48 WP MM DINAH 1984-07-25 12:00:00 TS 19.6200 152.300 55 985 tokyo main 2096 2090 OOOO______O___ jtwc_wp WP061984 19.5000 152.200 55 0 19.7000 152.300 4 55 985 9 30 30 9 200 200 0 19.6000 152.400 3 58 984 19.8000 152.400 STS 50 985 19.5000 152.200 2 55 6 233
1984204N21162 1984 48 WP MM DINAH 1984-07-25 15:00:00 TS 19.4482 152.050 main 2099 2088 PPPP______P___ WP061984 19.3624 151.978 57 0 19.5700 152.035 4 55 982 9 30 30 9 212 212 19.3400 152.150 3 58 982 19.6124 152.143 STS 52 983 19.3562 151.944 2 58 5 239
1984204N21162 1984 48 WP MM DINAH 1984-07-25 18:00:00 TS 19.3558 151.830 55 980 tokyo main 2088 2077 OOOO______P___ jtwc_wp WP061984 19.3000 151.800 60 0 19.5000 151.800 4 55 980 9 30 30 9 225 225 0 19.2000 151.900 3 58 980 19.5000 151.900 STS 55 982 19.2792 151.748 2 62 4 257
1984204N21162 1984 48 WP MM DINAH 1984-07-25 21:00:00 TS 19.3540 151.617 main 2077 2067 PPPP______P___ WP061984 19.2699 151.615 65 1 19.4699 151.600 4 60 977 9 40 40 9 225 225 19.3049 151.700 3 63 977 19.4626 151.593 STS 57 978 19.2626 151.578 2 66 4 279
1984204N21162 1984 48 WP MM DINAH 1984-07-26 00:00:00 TS 19.4200 151.400 65 975 tokyo main 2067 2046 OOOO______O___ jtwc_wp WP061984 19.3000 151.400 70 1 19.5000 151.400 5 65 975 9 50 50 9 225 225 0 19.5000 151.500 4 68 974 19.5000 151.300 STS 60 975 19.3000 151.400 3 70 5 289
1984204N21162 1984 48 WP MM DINAH 1984-07-26 03:00:00 TS 19.5060 151.146 main 2041 2021 PPPP______P___ WP061984 19.3776 151.100 72 1 19.5850 151.158 5 65 970 9 50 50 9 225 225 19.6075 151.257 4 72 968 19.5849 151.085 STS 65 970 19.3749 151.132 3 72 5 293
1984204N21162 1984 48 WP MM DINAH 1984-07-26 06:00:00 TS 19.6196 150.891 65 965 tokyo main 2021 2001 OOOO______P___ jtwc_wp WP061984 19.5000 150.800 75 1 19.7000 150.900 5 65 965 9 50 50 9 225 225 0 19.7000 151.000 4 77 963 19.7000 150.900 T 70 965 19.4978 150.856 3 75 5 296
1984204N21162 1984 48 WP MM DINAH 1984-07-26 09:00:00 TS 19.7424 150.639 main 1995 1966 PPPP______P___ WP061984 19.6500 150.570 77 1 19.8076 150.620 5 65 962 9 50 50 9 225 225 19.8076 150.720 4 82 960 19.8000 150.685 T 72 962 19.6468 150.601 3 77 5 300
1984204N21162 1984 48 WP MM DINAH 1984-07-26 12:00:00 TS 19.8600 150.440 65 960 tokyo main 1966 1961 OOOO______O___ jtwc_wp WP061984 19.8000 150.400 80 1 19.9000 150.400 5 65 960 9 50 50 9 225 225 0 19.9000 150.500 5 87 958 19.9000 150.500 T 75 960 19.8000 150.400 4 80 4 305
1984204N21162 1984 48 WP MM DINAH 1984-07-26 15:00:00 TS 19.9472 150.332 main 1961 1951 PPPP______P___ WP061984 19.9000 150.270 82 1 19.9499 150.320 5 70 955 9 50 50 9 212 212 19.9499 150.427 5 87 957 20.0075 150.377 T 77 957 19.9288 150.264 4 81 2 318
1984204N21162 1984 48 WP MM DINAH 1984-07-26 18:00:00 TS 20.0314 150.277 75 950 tokyo main 1951 1936 OOOO______P___ jtwc_wp WP061984 20.0000 150.200 85 2 20.0000 150.300 5 75 950 9 50 50 9 200 200 0 20.0000 150.400 5 87 956 20.1000 150.300 T 80 955 20.0572 150.187 4 82 2 328
1984204N21162 1984 48 WP MM DINAH 1984-07-26 21:00:00 TS 20.1274 150.209 main 1936 1926 PPPP______P___ WP061984 20.1500 150.163 85 2 20.0850 150.228 5 80 950 9 50 50 9 200 200 20.0775 150.263 5 87 956 20.1425 150.228 T 80 955 20.1820 150.167 4 83 2 341
1984204N21162 1984 48 WP MM DINAH 1984-07-27 00:00:00 TS 20.2400 150.200 85 950 tokyo main 1926 1912 OOOO______O___ jtwc_wp WP061984 20.3000 150.200 85 2 20.2000 150.200 5 85 950 9 50 50 9 200 200 0 20.2000 150.200 5 87 956 20.2000 150.200 T 80 955 20.3000 150.200 4 85 3 17
1984204N21162 1984 48 WP MM DINAH 1984-07-27 03:00:00 TS 20.3838 150.291 main 1912 1907 PPPP______P___ WP061984 20.4075 150.335 82 1 20.3500 150.270 5 85 950 9 50 50 9 200 200 20.4076 150.377 5 87 959 20.3425 150.213 T 77 957 20.4112 150.262 4 82 4 38
1984204N21162 1984 48 WP MM DINAH 1984-07-27 06:00:00 TS 20.5230 150.435 85 950 tokyo main 1907 1903 OOOO______P___ jtwc_wp WP061984 20.5000 150.500 80 1 20.5000 150.400 5 85 950 9 50 50 9 200 200 0 20.6000 150.600 5 87 962 20.5000 150.300 T 75 960 20.5150 150.375 4 80 3 46
1984204N21162 1984 48 WP MM DINAH 1984-07-27 09:00:00 TS 20.6227 150.559 main 1908 1899 PPPP______P___ WP061984 20.6074 150.593 77 1 20.6150 150.542 5 75 957 9 50 50 9 200 200 20.6724 150.650 5 82 964 20.6076 150.485 T 72 962 20.6112 150.525 4 77 3 54
1984204N21162 1984 48 WP MM DINAH 1984-07-27 12:00:00 TS 20.7000 150.700 65 965 tokyo main 1904 1900 OOOO______O___ jtwc_wp WP061984 20.7000 150.700 75 1 20.7000 150.700 5 65 965 9 50 50 9 200 200 0 20.7000 150.700 4 77 966 20.7000 150.700 T 70 965 20.7000 150.700 4 75 3 63
1984204N21162 1984 48 WP MM DINAH 1984-07-27 15:00:00 TS 20.7680 150.866 main 1906 1906 PPPP______P___ WP061984 20.7500 150.885 77 1 20.7500 150.843 5 65 965 9 50 50 9 200 200 20.7426 150.885 4 77 965 20.8074 150.850 T 70 965 20.7902 150.866 4 77 4 68
1984204N21162 1984 48 WP MM DINAH 1984-07-27 18:00:00 TS 20.8345 151.051 65 965 tokyo main 1916 1907 OOOO______P___ jtwc_wp WP061984 20.8000 151.100 80 1 20.8000 151.000 5 65 965 9 50 50 9 200 200 0 20.8000 151.100 4 77 964 20.9000 151.000 T 70 965 20.8724 151.055 4 80 4 66
1984204N21162 1984 48 WP MM DINAH 1984-07-27 21:00:00 TS 20.9216 151.234 main 1912 1908 PPPP______P___ WP061984 20.9074 151.292 82 1 20.9000 151.185 5 67 962 9 50 50 9 200 200 20.8999 151.250 4 77 963 20.9574 151.178 T 75 962 20.9433 151.266 4 82 4 66
1984204N21162 1984 48 WP MM DINAH 1984-07-28 00:00:00 TS 21.0000 151.440 70 960 tokyo main 1913 1913 OOOO______O___ jtwc_wp WP061984 21.0000 151.500 85 2 21.0000 151.400 5 70 960 9 50 50 9 200 200 0 21.0000 151.400 4 77 962 21.0000 151.400 T 80 960 21.0000 151.500 4 85 4 75
1984204N21162 1984 48 WP MM DINAH 1984-07-28 03:00:00 TS 21.0338 151.669 main 1930 1930 PPPP______P___ WP061984 21.0075 151.735 92 2 21.0799 151.620 5 70 955 9 50 50 9 200 200 21.0723 151.555 4 82 961 21.0350 151.685 T 85 950 20.9744 151.750 4 92 5 84
1984204N21162 1984 48 WP MM DINAH 1984-07-28 06:00:00 TS 21.0490 151.944 70 950 tokyo main 1941 1941 OOOO______P___ jtwc_wp WP061984 21.0000 152.000 100 3 21.1000 151.900 5 70 950 9 50 50 9 200 200 0 21.1000 151.800 5 87 960 21.1000 152.000 ST 90 940 20.9450 152.022 4 100 6 91
1984204N21162 1984 48 WP MM DINAH 1984-07-28 09:00:00 TS 21.0247 152.286 main 1964 1964 PPPP______P___ WP061984 20.9975 152.293 107 3 20.9477 152.301 5 80 935 9 62 62 9 200 200 20.9978 152.236 5 101 938 21.2124 152.293 ST 100 927 20.9681 152.307 4 107 7 86
1984204N21162 1984 48 WP MM DINAH 1984-07-28 12:00:00 TS 21.1000 152.640 90 920 tokyo main 1972 1962 OOOO______O___ jtwc_wp WP061984 21.1000 152.600 115 4 20.9000 152.700 5 90 920 9 75 75 9 200 200 0 21.0000 152.700 6 116 917 21.4000 152.600 SuperT 110 915 21.1000 152.600 4 115 7 60
1984204N21162 1984 48 WP MM DINAH 1984-07-28 15:00:00 TS 21.3893 152.958 main 1968 1945 PPPP______P___ WP061984 21.3825 152.900 117 4 21.2024 152.972 5 90 920 9 75 75 9 200 200 21.3174 153.045 6 116 917 21.6626 152.965 SuperT 110 915 21.3817 152.908 4 117 9 38
1984204N21162 1984 48 WP MM DINAH 1984-07-28 18:00:00 TS 21.8156 153.244 90 920 tokyo main 1945 1922 OOOO______P___ jtwc_wp WP061984 21.8000 153.200 120 4 21.7000 153.200 5 90 920 9 75 75 9 200 200 0 21.8000 153.300 6 116 917 22.0000 153.300 SuperT 110 915 21.7778 153.222 4 120 10 29
1984204N21162 1984 48 WP MM DINAH 1984-07-28 21:00:00 TS 22.2734 153.493 main 1919 1889 PPPP______P___ WP061984 22.2625 153.508 122 4 22.2125 153.458 5 95 917 9 100 100 9 250 250 22.2774 153.458 6 116 916 22.3548 153.515 SuperT 110 915 22.2599 153.524 4 122 11 24
1984204N21162 1984 48 WP MM DINAH 1984-07-29 00:00:00 TS 22.8000 153.720 100 915 tokyo main 1889 1860 OOOO______O___ jtwc_wp WP061984 22.8000 153.800 125 4 22.8000 153.700 5 100 915 9 125 125 9 300 300 0 22.8000 153.600 6 116 916 22.8000 153.700 SuperT 110 915 22.8000 153.800 4 125 12 22
1984204N21162 1984 48 WP MM DINAH 1984-07-29 03:00:00 TS 23.3709 153.966 main 1858 1831 PPPP______P___ WP061984 23.3850 154.073 120 4 23.4424 153.908 5 100 920 9 125 125 9 300 300 23.3276 153.850 6 116 920 23.3701 153.957 SuperT 105 920 23.3293 154.041 4 120 13 20
1984204N21162 1984 48 WP MM DINAH 1984-07-29 06:00:00 TS 23.9820 154.191 100 925 tokyo main 1823 1790 OOOO______P___ jtwc_wp WP061984 24.0000 154.300 115 4 24.1000 154.100 5 100 925 9 125 125 9 300 300 0 23.9000 154.100 6 116 925 24.0000 154.200 SuperT 100 925 23.9099 154.253 4 115 13 17
1984204N21162 1984 48 WP MM DINAH 1984-07-29 09:00:00 TS 24.5806 154.368 main 1789 1747 PPPP______P___ WP061984 24.5774 154.465 110 3 24.6925 154.300 5 95 930 9 125 125 9 300 300 24.5199 154.265 6 111 930 24.5775 154.373 SuperT 97 930 24.5356 154.438 4 110 13 14
1984204N21162 1984 48 WP MM DINAH 1984-07-29 12:00:00 TS 25.2200 154.520 90 935 tokyo main 1747 1707 OOOO______O___ jtwc_wp WP061984 25.2000 154.600 105 3 25.3000 154.500 5 90 935 9 125 125 9 300 300 0 25.2000 154.400 6 106 936 25.2000 154.500 ST 95 935 25.2000 154.600 4 105 14 11
1984204N21162 1984 48 WP MM DINAH 1984-07-29 15:00:00 TS 25.9288 154.670 main 1707 1662 PPPP______P___ WP061984 25.9350 154.757 102 3 25.9700 154.715 5 90 937 9 125 102 9 300 250 25.9350 154.550 6 106 937 25.9274 154.593 ST 92 937 25.8767 154.732 4 102 15 10
1984204N21162 1984 48 WP MM DINAH 1984-07-29 18:00:00 TS 26.6780 154.809 90 940 tokyo main 1655 1613 OOOO______P___ jtwc_wp WP061984 26.7000 154.900 100 3 26.7000 154.900 5 90 940 2 125 80 2 300 200 0 26.7000 154.700 6 106 939 26.7000 154.700 ST 90 940 26.5898 154.845 4 100 15 9
1984204N21162 1984 48 WP MM DINAH 1984-07-29 21:00:00 TS 27.4190 154.934 main 1613 1580 PPPP______P___ WP061984 27.3849 154.986 97 3 27.4924 155.001 5 90 942 2 125 80 2 300 200 27.4424 154.836 6 101 941 27.4425 154.885 ST 90 942 27.3330 154.961 4 97 15 9
1984204N21162 1984 48 WP MM DINAH 1984-07-30 00:00:00 TS 28.1800 155.080 90 945 tokyo main 1574 1544 OOOO______O___ jtwc_wp WP061984 28.1000 155.100 95 2 28.3000 155.100 5 90 945 2 125 80 2 300 200 0 28.2000 155.000 5 97 943 28.2000 155.100 ST 90 945 28.1000 155.100 4 95 16 11
1984204N21162 1984 48 WP MM DINAH 1984-07-30 03:00:00 TS 28.9719 155.275 main 1540 1513 PPPP______P___ WP061984 28.9426 155.335 92 2 29.0499 155.270 5 90 950 2 125 80 2 300 200 28.9925 155.228 5 92 947 28.9924 155.286 ST 87 947 28.8820 155.258 4 91 16 13
1984204N21162 1984 48 WP MM DINAH 1984-07-30 06:00:00 TS 29.7768 155.510 90 955 tokyo main 1511 1491 OOOO______P___ jtwc_wp WP061984 29.8000 155.600 90 2 29.8000 155.500 5 90 955 2 125 80 2 300 200 0 29.8000 155.500 5 87 952 29.8000 155.500 ST 85 950 29.6841 155.449 4 87 17 15
1984204N21162 1984 48 WP MM DINAH 1984-07-30 09:00:00 TS 30.5732 155.756 main 1494 1479 PPPP______P___ WP061984 30.5572 155.772 85 2 30.5999 155.770 5 82 957 2 112 90 2 300 200 30.6074 155.778 5 82 955 30.6074 155.770 ST 80 955 30.4942 155.690 4 83 17 17
1984204N21162 1984 48 WP MM DINAH 1984-07-30 12:00:00 TS 31.3600 156.060 75 960 tokyo main 1483 1475 OOOO______O___ jtwc_wp WP061984 31.3000 156.000 80 1 31.4000 156.100 5 75 960 9 100 100 2 300 200 0 31.4000 156.100 4 77 959 31.4000 156.100 T 75 960 31.3000 156.000 4 80 17 20
1984204N21162 1984 48 WP MM DINAH 1984-07-30 15:00:00 TS 32.1370 156.428 main 1481 1478 PPPP______P___ WP061984 32.1001 156.405 75 1 32.1573 156.463 5 72 962 9 100 100 2 300 200 32.1573 156.471 4 77 959 32.1573 156.463 T 72 960 32.1130 156.340 4 75 17 24
1984204N21162 1984 48 WP MM DINAH 1984-07-30 18:00:00 TS 32.9029 156.872 70 965 tokyo main 1497 1478 OOOO______P___ jtwc_wp WP061984 32.9000 156.900 70 1 32.9000 156.900 5 70 965 9 100 100 2 300 200 0 32.9000 156.900 4 77 959 32.9000 156.900 T 70 960 32.9146 156.758 4 70 17 27
1984204N21162 1984 48 WP MM DINAH 1984-07-30 21:00:00 TS 33.6711 157.342 main 1469 1425 PPPP______P___ WP061984 33.6791 157.342 65 1 33.6571 157.399 5 65 967 9 100 100 2 300 250 33.6711 157.305 4 72 964 33.6645 157.391 T 65 965 33.6840 157.272 4 65 17 31
1984204N21162 1984 48 WP MM DINAH 1984-07-31 00:00:00 TS 34.4000 157.940 60 970 tokyo main 1425 1397 OOOO______O___ jtwc_wp WP061984 34.4000 157.900 60 0 34.4000 158.000 4 60 970 9 100 100 9 300 300 0 34.4000 157.900 4 68 970 34.4000 158.000 STS 60 970 34.4000 157.900 2 60 18 39
1984204N21162 1984 48 WP MM DINAH 1984-07-31 03:00:00 TS 35.0605 158.710 main 1391 1382 PPPP______P___ WP061984 35.0302 158.691 55 0 35.1296 158.698 4 60 970 9 100 100 9 300 300 35.0377 158.845 4 63 972 35.0791 158.719 STS 60 970 35.0260 158.597 2 56 19 48
1984204N21162 1984 48 WP MM DINAH 1984-07-31 06:00:00 TS 35.6596 159.622 60 970 tokyo main 1378 1375 OOOO______P___ jtwc_wp WP061984 35.6000 159.600 50 0 35.8000 159.500 4 60 970 9 100 100 9 300 300 0 35.6000 160.000 3 58 975 35.7000 159.600 STS 60 970 35.5981 159.412 2 52 19 53
1984204N21162 1984 48 WP MM DINAH 1984-07-31 09:00:00 TS 36.2169 160.605 main 1385 1382 PPPP______P___ WP061984 36.1557 160.443 47 0 36.3941 160.349 4 55 975 9 9 250 250 36.1308 161.230 3 53 977 36.2576 160.656 STS 55 975 36.1461 160.346 2 48 20 57
1984204N21162 1984 48 WP MM DINAH 1984-07-31 12:00:00 TS 36.7400 161.660 50 980 tokyo main 1400 1392 OOOO______O___ jtwc_wp WP061984 36.7000 161.400 45 0 36.9000 161.300 4 50 980 0 9 200 200 0 36.6000 162.400 3 48 980 36.8000 161.800 STS 50 980 36.7000 161.400 2 45 20 59
1984204N21162 1984 48 WP MM DINAH 1984-07-31 15:00:00 TS 37.2477 162.712 main 1416 1413 PPPP______P___ WP061984 37.2347 162.584 45 0 37.2979 162.314 4 50 980 0 9 200 200 36.9981 163.305 3 48 980 37.4058 162.879 STS 50 980 37.3018 162.479 2 45 20 59
1984204N21162 1984 48 WP MM DINAH 1984-07-31 18:00:00 TS 37.7620 163.838 50 980 tokyo main 1435 1435 OOOO______P___ jtwc_wp WP061984 37.8000 163.900 45 0 37.7000 163.500 4 50 980 0 9 200 200 0 37.4000 164.100 3 48 980 38.0000 164.000 STS 50 980 37.9099 163.688 2 45 21 60
1984204N21162 1984 48 WP MM DINAH 1984-07-31 21:00:00 TS 38.3062 165.011 main 1475 1475 PPPP______P___ WP061984 38.4539 165.169 45 0 38.2171 164.868 4 50 980 0 9 200 200 37.8350 164.807 3 48 980 38.5117 165.156 STS 47 982 38.5134 165.053 2 45 23 61
1984204N21162 1984 48 WP MM DINAH 1984-08-01 00:00:00 TS 38.8800 166.400 50 980 tokyo main 1501 1501 OOOO______O___ jtwc_wp WP061984 39.1000 166.600 45 0 38.8000 166.500 4 50 980 0 9 200 200 0 38.4000 165.800 3 48 980 39.0000 166.500 TS 45 985 39.1000 166.600 2 45 27 65
1984204N21162 1984 48 WP MM DINAH 1984-08-01 03:00:00 TS 39.4575 168.149 main 1522 1522 PPPP______P___ WP061984 39.6204 168.291 42 0 39.4088 168.447 4 50 980 0 9 200 200 39.1955 167.363 3 48 980 39.4987 168.140 TS 42 985 39.5639 168.503 2 43 31 69
1984204N21162 1984 48 WP MM DINAH 1984-08-01 06:00:00 TS 40.0219 170.186 50 980 tokyo main 1586 1583 OOOO______P___ jtwc_wp WP061984 40.1000 170.200 40 0 40.0000 170.500 4 50 980 0 9 200 200 0 40.0000 169.500 3 48 980 40.0000 170.000 TS 40 985 40.0038 170.560 2 42 33 72
1984204N21162 1984 48 WP MM DINAH 1984-08-01 09:00:00 TS 40.5127 172.299 main 1651 1651 PPPP______P___ WP061984 40.5511 172.363 40 0 40.5105 172.370 4 50 980 0 9 200 200 40.5914 172.116 3 48 980 40.4611 171.968 TS 37 987 40.4886 172.586 2 41 33 72
1984204N21162 1984 48 WP MM DINAH 1984-08-01 12:00:00 MX 41.0429 174.300 50 980 tokyo main 1712 1690 OOOO______O___ jtwc_wp WP061984 41.1000 174.400 40 0 41.0000 174.200 4 50 980 0 9 200 200 0 41.0000 175.000 9 48 980 41.0000 174.000 TS 35 990 41.1000 174.400 2 40 30 68
1984204N21162 1984 48 WP MM DINAH 1984-08-01 15:00:00 TS 41.6661 176.031 main 1676 1544 PP_P______P___ WP061984 41.8781 175.948 40 0 41.4251 176.159 4 982 0 9 9 41.7057 176.000 TS 35 990 41.8964 175.888 2 40 29 63
1984204N21162 1984 48 WP MM DINAH 1984-08-01 18:00:00 ET 42.3500 177.733 984 tokyo main 1539 1401 OO_O______O___ jtwc_wp WP061984 42.8000 177.200 40 0 42.0000 178.000 6 984 0 0 0 42.5000 178.000 TS 35 990 42.8000 177.200 2 40 29 65
1984204N21162 1984 48 WP MM DINAH 1984-08-01 21:00:00 ET 42.9014 179.570 main 1396 1246 _P____________ WP061984 -1 42.9014 179.570 6 986 0 0 TS 2 29 55
1984204N21162 1984 48 EP CP DINAH 1984-08-02 00:00:00 ET 44.0000 181.000 main 1232 _O____________ -1 44.0000 181.000 6 988 0 0 0 30 43

Digital Typhoon Data and Search

About IBTrACS Database

This database is a web-friendly format of International Best Track Archive for Climate Stewardship (IBTrACS), a global best track data archive curated by NOAA dating back to 1842.

Updated: 2021-12-01